Waterloo Wellington, Ontario

5:32 PM EDT on August 29, 2016 (GMT -0400)
City | | Change Station

Elev 951 ft 43.40 °N, 80.34 °W | Updated 43 seconds ago

Haze
Haze
85.1 °F
Feels Like 86 °F
N
1.1
Wind Variable Wind from West

Today
High -- | Low -- °F
--% Chance of Precip.
Yesterday
High -- | Low -- °F
Precip. -- in
Pressure 30.22 in
Visibility 6.0 miles
Clouds Scattered Clouds 5000 ft
Heat Index 86 °F
Dew Point 62 °F
Humidity 46%
Rainfall 0.00 in
Snow Depth Not available.
6:42 AM 8:01 PM
Waning Crescent, 7% visible
SPECI CYKF 292128Z AUTO VRB03KT 6SM HZ SCT050 26/13 A3022 RMK SLP232 DENSITY ALT 2100FT
Pressure 30.22 in
Visibility 6.0 miles
Clouds Scattered Clouds 5000 ft
Heat Index 86 °F
Dew Point 62 °F
Humidity 46%
Rainfall 0.00 in
Snow Depth Not available.
6:42 AM 8:01 PM
Waning Crescent, 7% visible
SPECI CYKF 292128Z AUTO VRB03KT 6SM HZ SCT050 26/13 A3022 RMK SLP232 DENSITY ALT 2100FT

10-Day Weather Forecast

Almanac

Astronomy

Aug. 29, 2016 Rise Set
Actual Time
Civil Twilight
Nautical Twilight
Astronomical Twilight
Moon
Length of Visible Light
Length of Day
Tomorrow will be .
, % of the Moon is Illuminated

Today's Extremes

Country Highs Country Lows

Community

WunderPhotos

Upload Photos

1,935,679 photos uploaded!

WunderBlog® & News

Nearby

Air Quality

  Air Quality AQ Index Pollutant
Not available.

Snow Depth

Station Depth Elevation

Earthquake Activity

City Distance Mag. Time & Date
Minimum magnitude displayed is 2.5.

Coastal Water Temperatures

Place Temperature

Stations

Nearby Weather Stations

Station Location Temp. Windchill Dew Point Humidity Wind Precip. Elev Updated Type
                   

Watches & Warnings

There are currently no watches in effect.